createdAt,value
2022-08-16T00:01:15.890Z,36.15
2022-08-16T00:03:43.246Z,41.65
2022-08-16T00:06:10.679Z,39.63
2022-08-16T00:08:38.709Z,44.25
2022-08-16T00:11:07.757Z,38.40
2022-08-16T00:13:43.021Z,36.42
2022-08-16T00:17:06.293Z,39.33
2022-08-16T00:19:07.120Z,35.60
2022-08-16T00:21:35.279Z,32.40
2022-08-16T00:24:04.672Z,40.45
2022-08-16T00:26:35.104Z,46.33
2022-08-16T00:29:11.777Z,35.47
2022-08-16T00:31:47.078Z,37.55
2022-08-16T00:34:43.870Z,33.17
2022-08-16T00:37:17.370Z,42.92
2022-08-16T00:39:46.946Z,38.92
2022-08-16T00:42:14.680Z,40.50
2022-08-16T00:45:01.273Z,33.92
2022-08-16T00:47:35.272Z,37.35
2022-08-16T00:50:05.201Z,39.35
2022-08-16T00:52:39.025Z,44.53
2022-08-16T00:55:18.221Z,45.72
2022-08-16T00:57:59.179Z,43.35
2022-08-16T01:00:29.899Z,51.70
2022-08-16T01:02:58.412Z,42.88
2022-08-16T01:05:25.964Z,42.97
2022-08-16T01:07:54.285Z,44.30
2022-08-16T01:10:32.136Z,49.30
2022-08-16T01:13:07.125Z,43.63
2022-08-16T01:15:37.599Z,52.53
2022-08-16T01:18:39.951Z,48.47
2022-08-16T01:21:10.587Z,47.08
2022-08-16T01:23:58.387Z,56.88
2022-08-16T01:26:34.746Z,56.80
2022-08-16T01:29:05.282Z,51.95
2022-08-16T01:31:37.680Z,48.83
2022-08-16T01:34:25.412Z,52.00
2022-08-16T01:37:01.860Z,50.55
2022-08-16T01:39:30.195Z,58.40
2022-08-16T01:42:03.066Z,61.20
2022-08-16T01:44:37.299Z,56.40
2022-08-16T01:47:05.683Z,60.58
2022-08-16T01:49:43.575Z,63.40
2022-08-16T01:52:29.289Z,59.95
2022-08-16T01:54:57.460Z,59.53
2022-08-16T01:57:25.152Z,64.55
2022-08-16T01:59:54.523Z,65.45
2022-08-16T02:02:27.408Z,57.55
2022-08-16T02:04:56.160Z,62.72
2022-08-16T02:07:24.815Z,69.05
2022-08-16T02:09:57.090Z,65.55
2022-08-16T02:12:50.596Z,64.93
2022-08-16T02:15:13.606Z,65.82
2022-08-16T02:17:41.425Z,72.97
2022-08-16T02:20:11.600Z,72.65
2022-08-16T02:22:39.469Z,80.72
2022-08-16T02:25:10.307Z,73.55
2022-08-16T02:27:38.271Z,75.07
2022-08-16T02:30:07.391Z,73.97
2022-08-16T02:32:50.198Z,65.55
2022-08-16T02:35:22.904Z,71.60
2022-08-16T02:37:52.283Z,67.78
2022-08-16T02:40:21.140Z,64.68
2022-08-16T02:42:50.798Z,72.97
2022-08-16T02:45:19.657Z,67.43
2022-08-16T02:48:01.881Z,72.20
2022-08-16T02:50:54.663Z,74.22
2022-08-16T02:53:23.685Z,70.32
2022-08-16T02:55:51.393Z,74.50
2022-08-16T02:58:19.499Z,76.43
2022-08-16T03:00:52.538Z,72.18
2022-08-16T03:03:19.884Z,81.88
2022-08-16T03:05:49.804Z,74.35
2022-08-16T03:08:31.063Z,74.57
2022-08-16T03:11:17.931Z,78.45
2022-08-16T03:13:50.562Z,71.93
2022-08-16T03:16:36.610Z,66.35
2022-08-16T03:19:06.910Z,70.95
2022-08-16T03:21:37.832Z,68.15
2022-08-16T03:24:27.553Z,72.70
2022-08-16T03:26:58.189Z,69.22
2022-08-16T03:29:27.430Z,66.47
2022-08-16T03:31:59.224Z,62.30
2022-08-16T03:34:27.512Z,68.90
2022-08-16T03:36:55.217Z,67.80
2022-08-16T03:39:23.097Z,67.93
2022-08-16T03:41:59.759Z,73.00
2022-08-16T03:44:43.956Z,69.03
2022-08-16T03:47:19.273Z,71.03
2022-08-16T03:49:51.389Z,76.25
2022-08-16T03:52:20.489Z,72.07
2022-08-16T03:54:53.561Z,69.35
2022-08-16T03:57:31.817Z,74.53
2022-08-16T04:00:20.460Z,75.20
2022-08-16T04:03:07.292Z,79.85
2022-08-16T04:05:36.295Z,79.80
2022-08-16T04:08:23.794Z,80.32
2022-08-16T04:10:53.112Z,74.90
2022-08-16T04:14:01.747Z,75.63
2022-08-16T04:16:08.195Z,77.47
2022-08-16T04:18:42.720Z,78.47
2022-08-16T04:21:13.493Z,73.15
2022-08-16T04:23:56.905Z,71.05
2022-08-16T04:26:24.188Z,72.40
2022-08-16T04:29:16.850Z,78.03
2022-08-16T04:31:45.783Z,77.80
2022-08-16T04:34:14.562Z,74.63
2022-08-16T04:36:41.903Z,74.30
2022-08-16T04:39:16.226Z,79.30
2022-08-16T04:41:43.601Z,75.45
2022-08-16T04:44:32.401Z,73.78
2022-08-16T04:47:01.094Z,74.57
2022-08-16T04:49:43.933Z,74.03
2022-08-16T04:52:34.236Z,75.32
2022-08-16T04:55:00.899Z,70.95
2022-08-16T04:57:30.667Z,75.53
2022-08-16T04:59:58.132Z,78.95
2022-08-16T05:02:42.284Z,81.68
2022-08-16T05:05:17.738Z,74.38
2022-08-16T05:07:57.965Z,73.00
2022-08-16T05:10:28.138Z,64.68
2022-08-16T05:12:56.878Z,67.00
2022-08-16T05:15:24.540Z,64.13
2022-08-16T05:17:58.496Z,55.33
2022-08-16T05:20:38.730Z,50.03
2022-08-16T05:23:13.707Z,48.53
2022-08-16T05:25:48.538Z,49.47
2022-08-16T05:28:17.021Z,48.03
2022-08-16T05:30:44.379Z,48.45
2022-08-16T05:33:16.408Z,49.03
2022-08-16T05:35:44.449Z,48.25
2022-08-16T05:38:33.062Z,51.22
2022-08-16T05:41:06.266Z,58.47
2022-08-16T05:43:43.531Z,49.72
2022-08-16T05:46:30.467Z,56.70
2022-08-16T05:49:06.049Z,58.03
2022-08-16T05:51:40.135Z,62.70
2022-08-16T05:54:11.503Z,60.30
2022-08-16T05:56:43.023Z,59.45
2022-08-16T05:59:10.823Z,59.50
2022-08-16T06:01:39.157Z,65.22
2022-08-16T06:04:12.748Z,68.25
2022-08-16T06:06:41.873Z,66.35
2022-08-16T06:09:12.719Z,66.97
2022-08-16T06:11:43.074Z,67.93
2022-08-16T06:14:10.602Z,62.88
2022-08-16T06:16:37.924Z,60.13
2022-08-16T06:19:05.229Z,59.63
2022-08-16T06:21:36.849Z,56.05
2022-08-16T06:24:54.955Z,60.50
2022-08-16T06:26:57.840Z,59.97
2022-08-16T06:29:25.753Z,55.85
2022-08-16T06:31:54.038Z,58.78
2022-08-16T06:34:56.208Z,55.70
2022-08-16T06:37:11.109Z,49.92
2022-08-16T06:39:46.706Z,51.80
2022-08-16T06:42:18.270Z,49.70
2022-08-16T06:44:46.493Z,48.03
2022-08-16T06:47:17.014Z,51.38
2022-08-16T06:49:54.098Z,52.38
2022-08-16T06:53:00.186Z,49.85
2022-08-16T06:55:12.939Z,46.55
2022-08-16T06:57:41.298Z,50.47
2022-08-16T07:00:24.234Z,49.90
2022-08-16T07:02:56.660Z,48.33
2022-08-16T07:05:39.738Z,44.65
2022-08-16T07:08:11.402Z,49.47
2022-08-16T07:10:41.728Z,51.30
2022-08-16T07:13:16.765Z,47.60
2022-08-16T07:15:57.483Z,41.97
2022-08-16T07:18:24.870Z,39.75
2022-08-16T07:20:53.916Z,36.35
2022-08-16T07:23:34.983Z,37.88
2022-08-16T07:26:05.119Z,38.65
2022-08-16T07:28:32.402Z,38.88
2022-08-16T07:31:02.027Z,37.90
2022-08-16T07:33:53.243Z,42.92
2022-08-16T07:36:22.029Z,38.78
2022-08-16T07:38:50.379Z,73.43
2022-08-16T07:41:18.646Z,33.92
2022-08-16T07:43:47.482Z,32.80
2022-08-16T07:46:38.822Z,34.33
2022-08-16T07:49:03.348Z,32.45
2022-08-16T07:51:37.031Z,30.15
2022-08-16T07:54:09.398Z,28.85
2022-08-16T07:56:37.628Z,27.08
2022-08-16T07:59:05.939Z,24.88
2022-08-16T08:01:34.653Z,25.85
2022-08-16T08:04:03.828Z,33.75
2022-08-16T08:06:32.497Z,30.45
2022-08-16T08:09:00.300Z,25.20
2022-08-16T08:11:28.628Z,20.63
2022-08-16T08:13:57.644Z,22.90
2022-08-16T08:16:31.167Z,19.17
2022-08-16T08:19:00.686Z,19.15
2022-08-16T08:24:17.726Z,19.27
2022-08-16T08:26:49.809Z,17.75
2022-08-16T08:29:22.524Z,18.40
2022-08-16T08:31:51.511Z,16.80
2022-08-16T08:34:19.115Z,21.13
2022-08-16T08:36:48.677Z,18.20
2022-08-16T08:39:15.938Z,16.55
2022-08-16T08:41:49.525Z,18.83
2022-08-16T08:44:27.899Z,18.50
2022-08-16T08:47:00.672Z,19.70
2022-08-16T08:49:50.535Z,23.55
2022-08-16T08:52:34.459Z,23.10
2022-08-16T08:55:11.079Z,22.27
2022-08-16T08:57:45.426Z,26.90
2022-08-16T09:00:14.292Z,24.17
2022-08-16T09:02:52.042Z,27.88
2022-08-16T09:05:20.960Z,22.75
2022-08-16T09:08:00.286Z,28.50
2022-08-16T09:10:29.874Z,24.80
2022-08-16T09:12:57.522Z,29.70
2022-08-16T09:15:25.387Z,26.85
2022-08-16T09:18:00.202Z,23.38
2022-08-16T09:20:30.090Z,24.80
2022-08-16T09:22:57.981Z,30.63
2022-08-16T09:25:33.706Z,22.35
2022-08-16T09:28:02.529Z,21.40
2022-08-16T09:30:44.336Z,24.85
2022-08-16T09:33:13.650Z,20.30
2022-08-16T09:35:42.544Z,20.30
2022-08-16T09:38:12.321Z,21.55
2022-08-16T09:40:43.336Z,19.10
2022-08-16T09:43:37.421Z,18.73
2022-08-16T09:45:59.311Z,18.42
2022-08-16T09:48:44.531Z,18.42
2022-08-16T09:51:16.185Z,18.23
2022-08-16T09:53:47.423Z,19.58
2022-08-16T09:56:26.458Z,19.48
2022-08-16T09:59:03.917Z,16.90
2022-08-16T10:01:33.562Z,18.00
2022-08-16T10:04:04.185Z,14.43
2022-08-16T10:06:33.398Z,14.60
2022-08-16T10:09:04.309Z,14.82
2022-08-16T10:11:53.204Z,15.52
2022-08-16T10:14:24.921Z,13.20
2022-08-16T10:17:02.609Z,12.13
2022-08-16T10:19:31.865Z,11.70
2022-08-16T10:22:05.062Z,12.38
2022-08-16T10:24:33.478Z,9.13
2022-08-16T10:27:25.434Z,9.60
2022-08-16T10:29:59.934Z,13.40
2022-08-16T10:34:58.264Z,9.30
2022-08-16T10:37:32.557Z,7.95
2022-08-16T10:40:05.508Z,9.70
2022-08-16T10:42:32.934Z,8.70
2022-08-16T10:45:00.874Z,13.45
2022-08-16T10:47:32.152Z,8.45
2022-08-16T10:50:06.948Z,7.95
2022-08-16T10:52:49.600Z,7.55
2022-08-16T10:58:11.924Z,6.80
2022-08-16T11:00:40.814Z,6.72
2022-08-16T11:03:41.743Z,8.68
2022-08-16T11:06:00.051Z,5.72
2022-08-16T11:08:35.447Z,5.75
2022-08-16T11:11:06.721Z,8.88
2022-08-16T11:17:02.308Z,9.27
2022-08-16T11:19:16.027Z,5.65
2022-08-16T11:24:42.197Z,6.45
2022-08-16T11:27:22.849Z,6.47
2022-08-16T11:29:53.041Z,5.60
2022-08-16T11:32:29.733Z,6.63
2022-08-16T11:35:14.013Z,6.03
2022-08-16T11:40:33.065Z,12.65
2022-08-16T11:43:01.583Z,6.35
2022-08-16T11:45:33.996Z,8.23
2022-08-16T11:48:05.444Z,7.60
2022-08-16T11:50:33.768Z,8.38
2022-08-16T11:53:05.944Z,7.18
2022-08-16T11:55:38.290Z,5.82
2022-08-16T11:58:06.611Z,6.05
2022-08-16T12:00:50.673Z,7.43
2022-08-16T12:03:21.831Z,11.73
2022-08-16T12:06:00.290Z,6.75
2022-08-16T12:08:27.737Z,6.30
2022-08-16T12:10:59.256Z,9.02
2022-08-16T12:13:27.346Z,6.00
2022-08-16T12:15:55.959Z,6.32
2022-08-16T12:18:23.657Z,14.65
2022-08-16T12:20:51.502Z,8.52
2022-08-16T12:23:22.700Z,7.35
2022-08-16T12:25:51.056Z,6.00
2022-08-16T12:28:36.675Z,10.07
2022-08-16T12:31:08.131Z,13.13
2022-08-16T12:33:44.803Z,8.98
2022-08-16T12:36:14.087Z,9.40
2022-08-16T12:38:48.062Z,9.98
2022-08-16T12:41:25.424Z,14.60
2022-08-16T12:43:56.843Z,7.50
2022-08-16T12:46:25.302Z,12.45
2022-08-16T12:48:58.742Z,12.40
2022-08-16T12:51:32.923Z,8.18
2022-08-16T12:54:16.247Z,12.25
2022-08-16T12:56:43.556Z,9.73
2022-08-16T12:59:14.759Z,11.88
2022-08-16T13:01:47.800Z,15.65
2022-08-16T13:04:20.389Z,13.25
2022-08-16T13:06:52.019Z,15.00
2022-08-16T13:09:26.797Z,13.70
2022-08-16T13:12:15.684Z,14.20
2022-08-16T13:14:44.259Z,14.40
2022-08-16T13:17:18.765Z,19.77
2022-08-16T13:22:34.875Z,24.13
2022-08-16T13:25:02.259Z,13.93
2022-08-16T13:27:59.076Z,11.77
2022-08-16T13:30:36.062Z,16.92
2022-08-16T13:33:10.426Z,14.60
2022-08-16T13:35:43.148Z,19.92
2022-08-16T13:38:11.060Z,16.75
2022-08-16T13:43:21.571Z,16.67
2022-08-16T13:45:50.725Z,20.35
2022-08-16T13:48:24.434Z,20.27
2022-08-16T13:50:53.837Z,19.52
2022-08-16T13:53:24.132Z,17.35
2022-08-16T13:55:58.398Z,22.90
2022-08-16T13:58:35.588Z,19.85
2022-08-16T14:01:09.798Z,18.90
2022-08-16T14:03:38.569Z,20.00
2022-08-16T14:06:06.872Z,24.67
2022-08-16T14:11:05.666Z,22.42
2022-08-16T14:13:39.235Z,23.40
2022-08-16T14:16:12.461Z,30.77
2022-08-16T14:18:52.687Z,24.60
2022-08-16T14:21:22.141Z,22.50
2022-08-16T14:23:52.198Z,25.02
2022-08-16T14:26:21.182Z,22.95
2022-08-16T14:28:50.782Z,21.75
2022-08-16T14:31:18.233Z,30.05
2022-08-16T14:33:45.638Z,23.98
2022-08-16T14:36:18.920Z,27.42
2022-08-16T14:38:57.078Z,19.55
2022-08-16T14:41:24.781Z,22.70
2022-08-16T14:43:52.059Z,27.80
2022-08-16T14:46:19.337Z,22.00
2022-08-16T14:48:46.982Z,18.42
2022-08-16T14:51:15.944Z,18.23
2022-08-16T14:53:45.427Z,16.30
2022-08-16T14:56:17.598Z,18.60
2022-08-16T14:59:01.100Z,18.90
2022-08-16T15:01:57.640Z,19.60
2022-08-16T15:04:39.490Z,16.23
2022-08-16T15:07:05.208Z,16.88
2022-08-16T15:09:32.667Z,18.83
2022-08-16T15:12:26.296Z,17.08
2022-08-16T15:14:58.119Z,16.15
2022-08-16T15:17:27.712Z,18.10
2022-08-16T15:20:08.428Z,19.48
2022-08-16T15:22:38.079Z,17.83
2022-08-16T15:25:08.854Z,16.27
2022-08-16T15:27:41.885Z,12.87
2022-08-16T15:30:57.316Z,35.33
2022-08-16T15:33:04.788Z,17.55
2022-08-16T15:35:33.444Z,12.05
2022-08-16T15:38:08.942Z,14.40
2022-08-16T15:40:57.810Z,15.90
2022-08-16T15:43:33.916Z,20.15
2022-08-16T15:46:54.676Z,13.43
2022-08-16T15:49:09.907Z,14.23
2022-08-16T15:51:39.720Z,13.77
2022-08-16T15:54:28.830Z,13.43
2022-08-16T15:56:56.170Z,19.08
2022-08-16T15:59:27.413Z,16.88
2022-08-16T16:01:55.773Z,15.00
2022-08-16T16:04:25.570Z,16.15
2022-08-16T16:06:55.162Z,14.95
2022-08-16T16:09:34.703Z,15.00
2022-08-16T16:12:16.179Z,16.45
2022-08-16T16:14:52.431Z,12.50
2022-08-16T16:17:19.701Z,14.20
2022-08-16T16:19:53.518Z,13.43
2022-08-16T16:22:22.228Z,14.70
2022-08-16T16:24:52.715Z,16.00
2022-08-16T16:27:21.818Z,12.70
2022-08-16T16:29:57.757Z,15.02
2022-08-16T16:32:34.571Z,13.65
2022-08-16T16:35:02.571Z,15.55
2022-08-16T16:37:31.274Z,11.60
2022-08-16T16:39:59.681Z,12.75
2022-08-16T16:42:29.959Z,12.82
2022-08-16T16:45:01.593Z,13.00
2022-08-16T16:47:30.020Z,12.02
2022-08-16T16:50:09.280Z,11.38
2022-08-16T16:52:43.912Z,14.75
2022-08-16T16:55:14.650Z,12.05
2022-08-16T16:58:01.197Z,12.00
2022-08-16T17:00:37.941Z,11.38
2022-08-16T17:03:17.126Z,15.30
2022-08-16T17:05:54.108Z,13.65
2022-08-16T17:08:27.651Z,12.57
2022-08-16T17:10:56.251Z,11.75
2022-08-16T17:13:24.667Z,9.88
2022-08-16T17:15:53.981Z,12.52
2022-08-16T17:19:15.715Z,10.57
2022-08-16T17:21:10.603Z,12.55
2022-08-16T17:23:58.838Z,11.45
2022-08-16T17:26:29.488Z,14.30
2022-08-16T17:29:02.657Z,16.13
2022-08-16T17:31:40.661Z,19.23
2022-08-16T17:34:29.204Z,18.00
2022-08-16T17:36:59.526Z,17.05
2022-08-16T17:39:29.641Z,25.40
2022-08-16T17:41:57.379Z,28.60
2022-08-16T17:44:24.663Z,22.48
2022-08-16T17:46:52.935Z,25.67
2022-08-16T17:49:20.881Z,25.88
2022-08-16T17:51:48.242Z,22.65
2022-08-16T17:54:18.466Z,23.33
2022-08-16T17:56:57.295Z,27.70
2022-08-16T17:59:24.764Z,26.33
2022-08-16T18:01:53.377Z,28.90
2022-08-16T18:04:43.605Z,24.15
2022-08-16T18:07:08.454Z,24.17
2022-08-16T18:09:40.683Z,25.25
2022-08-16T18:12:44.400Z,28.95
2022-08-16T18:15:06.134Z,25.92
2022-08-16T18:17:33.447Z,25.10
2022-08-16T18:20:00.874Z,32.28
2022-08-16T18:22:30.696Z,32.47
2022-08-16T18:24:58.600Z,27.67
2022-08-16T18:27:27.380Z,29.75
2022-08-16T18:29:55.180Z,29.52
2022-08-16T18:32:24.615Z,28.27
2022-08-16T18:34:52.903Z,33.22
2022-08-16T18:37:22.266Z,34.33
2022-08-16T18:39:49.650Z,33.50
2022-08-16T18:42:17.108Z,31.85
2022-08-16T18:44:45.034Z,34.35
2022-08-16T18:47:12.384Z,33.83
2022-08-16T18:49:39.667Z,26.50
2022-08-16T18:52:07.760Z,25.92
2022-08-16T18:55:03.146Z,39.45
2022-08-16T18:57:22.229Z,36.85
2022-08-16T18:59:49.532Z,32.60
2022-08-16T19:02:57.476Z,33.92
2022-08-16T19:05:12.818Z,46.85
2022-08-16T19:07:40.153Z,97.82
2022-08-16T19:10:07.784Z,34.42
2022-08-16T19:12:38.071Z,30.73
2022-08-16T19:15:11.920Z,39.35
2022-08-16T19:17:40.535Z,37.63
2022-08-16T19:20:10.710Z,35.75
2022-08-16T19:23:02.116Z,32.83
2022-08-16T19:25:28.414Z,31.17
2022-08-16T19:28:46.671Z,37.65
2022-08-16T19:31:03.571Z,44.30
2022-08-16T19:33:30.952Z,36.95
2022-08-16T19:35:58.244Z,36.90
2022-08-16T19:38:25.504Z,33.25
2022-08-16T19:40:52.808Z,27.92
2022-08-16T19:43:21.960Z,39.78
2022-08-16T19:45:49.681Z,32.25
2022-08-16T19:48:17.082Z,40.95
2022-08-16T19:50:44.429Z,30.33
2022-08-16T19:53:18.783Z,33.80
2022-08-16T19:55:47.445Z,34.70
2022-08-16T19:58:15.533Z,33.35
2022-08-16T20:00:43.311Z,34.15
2022-08-16T20:03:12.422Z,38.10
2022-08-16T20:05:41.200Z,33.50
2022-08-16T20:08:08.620Z,36.25
2022-08-16T20:10:35.987Z,38.38
2022-08-16T20:13:03.271Z,39.80
2022-08-16T20:15:31.557Z,35.00
2022-08-16T20:18:00.292Z,37.70
2022-08-16T20:20:28.555Z,41.72
2022-08-16T20:22:57.536Z,36.25
2022-08-16T20:25:33.001Z,40.17
2022-08-16T20:28:00.969Z,46.85
2022-08-16T20:30:28.533Z,38.80
2022-08-16T20:32:56.293Z,48.30
2022-08-16T20:35:25.197Z,44.30
2022-08-16T20:37:52.520Z,42.05
2022-08-16T20:40:33.945Z,43.35
2022-08-16T20:43:16.288Z,43.03
2022-08-16T20:45:45.510Z,41.47
2022-08-16T20:48:13.134Z,49.75
2022-08-16T20:50:40.455Z,88.07
2022-08-16T20:53:08.332Z,46.97
2022-08-16T20:55:36.756Z,43.40
2022-08-16T20:58:04.318Z,43.78
2022-08-16T21:00:33.553Z,45.78
2022-08-16T21:03:01.535Z,43.22
2022-08-16T21:05:31.857Z,48.97
2022-08-16T21:07:59.334Z,41.60
2022-08-16T21:10:27.185Z,45.58
2022-08-16T21:12:55.753Z,39.08
2022-08-16T21:15:24.679Z,41.22
2022-08-16T21:17:52.087Z,46.88
2022-08-16T21:20:20.111Z,45.70
2022-08-16T21:22:55.092Z,48.60
2022-08-16T21:25:23.188Z,43.05
2022-08-16T21:28:40.758Z,47.67
2022-08-16T21:30:38.672Z,46.00
2022-08-16T21:33:07.735Z,40.35
2022-08-16T21:35:35.804Z,42.38
2022-08-16T21:38:28.891Z,46.33
2022-08-16T21:40:51.745Z,41.83
2022-08-16T21:43:20.527Z,44.85
2022-08-16T21:45:48.439Z,39.30
2022-08-16T21:48:34.477Z,40.97
2022-08-16T21:51:07.533Z,115.10
2022-08-16T21:53:35.047Z,66.13
2022-08-16T21:56:02.796Z,46.38
2022-08-16T21:58:30.876Z,46.05
2022-08-16T22:00:58.802Z,47.10
2022-08-16T22:03:26.073Z,43.08
2022-08-16T22:06:12.091Z,50.55
2022-08-16T22:08:49.686Z,51.67
2022-08-16T22:11:19.283Z,54.88
2022-08-16T22:13:57.897Z,53.00
2022-08-16T22:16:32.323Z,52.35
2022-08-16T22:18:59.839Z,47.47
2022-08-16T22:21:27.309Z,46.40
2022-08-16T22:23:56.720Z,48.20
2022-08-16T22:26:31.015Z,43.63
2022-08-16T22:29:09.161Z,41.75
2022-08-16T22:31:37.019Z,47.72
2022-08-16T22:34:04.751Z,54.35
2022-08-16T22:36:33.156Z,53.47
2022-08-16T22:39:01.523Z,52.92
2022-08-16T22:41:31.625Z,55.65
2022-08-16T22:43:59.015Z,57.80
2022-08-16T22:46:26.244Z,50.67
2022-08-16T22:48:53.523Z,52.88
2022-08-16T22:51:21.590Z,48.15
2022-08-16T22:53:49.128Z,57.78
2022-08-16T22:56:17.558Z,55.08
2022-08-16T22:58:45.188Z,60.90
2022-08-16T23:01:13.086Z,61.38
2022-08-16T23:03:40.588Z,55.90
2022-08-16T23:06:08.368Z,111.43
2022-08-16T23:08:40.646Z,61.83
2022-08-16T23:11:13.231Z,54.78
2022-08-16T23:13:49.682Z,56.53
2022-08-16T23:16:22.139Z,52.75
2022-08-16T23:18:49.756Z,56.05
2022-08-16T23:21:18.095Z,55.72
2022-08-16T23:23:46.675Z,56.15
2022-08-16T23:26:44.305Z,56.45
2022-08-16T23:29:04.482Z,60.03
2022-08-16T23:31:32.591Z,56.13
2022-08-16T23:34:00.409Z,62.40
2022-08-16T23:36:27.754Z,66.15
2022-08-16T23:38:55.007Z,61.47
2022-08-16T23:41:22.282Z,62.28
2022-08-16T23:43:49.553Z,61.58
2022-08-16T23:46:17.979Z,63.45
2022-08-16T23:49:59.292Z,63.33
2022-08-16T23:51:32.999Z,62.08
2022-08-16T23:54:01.203Z,63.38
2022-08-16T23:56:31.701Z,62.78
2022-08-16T23:59:08.233Z,59.00
